x

8555889 - Brandywine Shoal Light, De (brnd1) Weather Station

9:12am - Sun 25th Feb 2018 All times are EST. -5 hours from GMT.

  • Wind
    8mph, 8mph gusts
  • Air Temp 46°f
  • Sea Pressure 1014.9mb
  • 8555889 - Brandywine Shoal Light, De
  • 8555889 - Brandywine Shoal Light, De

More Historic Weather Station data

Upgrade to MSW Pro to gain access to the past 30 days of data for over 8000 Wavebouys and Weather Stations around the globe.

Join

Comparision Forecast

View Surf forecast
   
Sun 02/25 9:12am 8 8 mph 1014.9mb 46f
9:06am 8 8 mph 1014.9mb 46f
9:00am 8 9 mph 1014.9mb -
8:54am 8 8 mph 1015.1mb 46f
8:48am 9 9 mph 1015.2mb 46f
8:42am 8 9 mph 1015.3mb 46f
8:36am 8 9 mph 1015.3mb 46f
8:30am 9 10 mph 1015.4mb 46f
8:24am 9 10 mph 1015.3mb 46f
8:18am 10 11 mph 1015.4mb 46f
8:12am 11 13 mph 1015.4mb 46f
8:06am 11 13 mph 1015.4mb 46f
8:00am 11 14 mph 1015.6mb 46f
7:54am 14 14 mph 1015.5mb 46f
7:48am 11 13 mph 1015.7mb 46f
7:42am 11 13 mph 1015.7mb 46f
7:36am 10 13 mph 1015.9mb 46f
7:30am 13 14 mph 1015.8mb 46f
7:24am 10 13 mph 1015.8mb 46f
7:18am 13 14 mph 1015.8mb 46f
7:12am 13 15 mph 1015.8mb 45f
7:06am 15 16 mph 1015.6mb 45f
7:00am 16 16 mph 1015.4mb 46f
6:54am 14 15 mph 1015.6mb 45f
6:48am 14 16 mph 1015.7mb 45f
6:42am 15 16 mph 1015.8mb 45f
6:36am 15 17 mph 1015.9mb 45f
6:30am 16 17 mph 1015.9mb 45f
6:24am 17 18 mph 1015.9mb 45f
6:18am 15 16 mph 1015.9mb 45f
6:12am 15 18 mph 1016mb 45f
6:06am 17 20 mph 1016mb 45f
6:00am 16 20 mph 1016.1mb 45f
5:54am 17 20 mph 1016.1mb 45f
5:48am 18 20 mph 1016.2mb 46f
5:42am 14 16 mph 1016.4mb 45f
5:36am 16 21 mph 1016.5mb 46f
5:30am 18 21 mph 1016.4mb 46f
5:24am 17 20 mph 1016.7mb 46f
5:18am 17 21 mph 1016.6mb 45f
5:12am 16 18 mph 1016.5mb 45f
5:06am 16 21 mph 1016.8mb 45f
5:00am 18 21 mph - -
4:54am 20 22 mph 1016.9mb 45f
4:48am 18 23 mph 1016.9mb 45f
4:42am 23 25 mph 1016.7mb 45f
4:36am 22 25 mph 1016.7mb 45f
4:30am 22 23 mph 1016.9mb 45f
4:24am 21 26 mph 1017mb 45f
4:18am 24 26 mph 1016.9mb 45f
4:12am 21 23 mph 1017.2mb 45f
4:06am 22 24 mph 1017.2mb 45f
4:00am 22 25 mph 1017.1mb 45f
3:54am 21 25 mph 1017.3mb 45f
3:48am 23 25 mph 1017.3mb 45f
3:42am 23 25 mph 1017.3mb 45f
3:36am 22 25 mph 1017.5mb 45f
3:30am 22 24 mph 1017.5mb 45f
3:24am 22 24 mph 1017.6mb 45f
3:18am 23 25 mph 1017.5mb 45f
3:12am 23 24 mph 1017.5mb 46f
3:06am 22 24 mph 1017.8mb 46f
3:00am 22 24 mph 1018mb 46f
2:54am 22 23 mph 1018.1mb 46f
2:48am 21 22 mph 1018.2mb 46f
2:42am 18 20 mph 1018.5mb 46f
2:36am 17 20 mph 1018.7mb 46f
2:30am 18 20 mph 1018.8mb 46f
2:24am 17 18 mph 1018.9mb 46f
2:18am 18 20 mph - -
2:12am 16 18 mph 1019.3mb 46f
2:06am 15 16 mph 1019.6mb 45f
2:00am 15 16 mph 1019.7mb -
1:54am 13 14 mph 1020mb 45f
1:48am 13 14 mph 1020.1mb 45f
1:42am 14 15 mph 1020.2mb -
1:36am 13 15 mph 1020.2mb -
1:30am 13 14 mph 1020.3mb -
1:24am 13 14 mph 1020.3mb 46f
1:18am 13 16 mph 1020.3mb 46f
1:12am 15 18 mph 1020.2mb 46f
1:06am 17 18 mph 1020.1mb 46f
1:00am 16 18 mph 1020.2mb 46f
12:54am 16 17 mph 1020.2mb 46f
12:48am 16 18 mph 1020.3mb 46f
12:42am 16 17 mph 1020.4mb -
12:36am 15 16 mph 1020.5mb -
12:30am 16 17 mph - -
12:24am 14 15 mph 1020.9mb 46f
12:18am 14 15 mph 1021mb 46f
12:12am 14 15 mph 1021mb 46f
12:06am 14 16 mph 1021.1mb 46f
12:00am 11 13 mph 1021.2mb 46f
Sat 02/24 11:54pm 11 14 mph 1021.3mb 46f
11:48pm 13 14 mph 1021.1mb 46f
11:42pm 11 13 mph 1021.1mb 46f
11:36pm 11 11 mph 1021.2mb 47f
11:30pm 10 10 mph 1021.3mb 46f
11:24pm 9 11 mph 1021.5mb 47f
11:18pm 13 14 mph 1021.5mb 47f
11:12pm 14 16 mph 1021.4mb 47f
11:06pm 15 16 mph 1021.2mb 47f
11:00pm 15 16 mph 1021.1mb 47f
10:54pm 15 16 mph 1021.1mb 47f
10:48pm 16 17 mph 1020.9mb 47f
10:42pm 17 17 mph 1020.9mb 48f
10:36pm 14 16 mph 1021.2mb 48f
10:30pm 13 15 mph 1021.1mb 48f
10:24pm 11 13 mph 1021.1mb 48f
10:18pm 11 13 mph 1021.1mb 48f
10:12pm 11 13 mph 1021.2mb 48f
10:06pm 9 11 mph 1021.4mb 47f
10:00pm 11 14 mph 1021.3mb 48f
9:54pm 13 14 mph 1021.2mb 48f
9:48pm 14 15 mph 1021.2mb 48f
9:42pm 13 14 mph 1021.1mb 48f
9:36pm 13 14 mph 1021.2mb 48f
9:30pm 15 16 mph 1021mb 48f
9:24pm 13 14 mph 1021.1mb 48f
9:18pm 11 14 mph 1021.2mb 48f
9:12pm 13 14 mph 1021.1mb 48f
9:06pm 11 13 mph 1021.2mb 48f
9:00pm 9 10 mph 1021.6mb 48f
8:54pm 7 7 mph 1021.9mb 48f
8:48pm 7 7 mph 1022mb 48f
8:42pm 7 7 mph 1022mb 49f
8:36pm 7 8 mph 1022mb 49f
8:30pm 8 8 mph 1022mb 49f
8:24pm 8 8 mph 1021.9mb 49f
8:18pm 7 8 mph 1021.9mb 49f
8:12pm 8 8 mph 1022mb 49f
8:06pm 8 8 mph 1022.1mb 49f
8:00pm 8 9 mph 1021.9mb 49f
7:42pm 10 11 mph 1021.5mb 49f
7:36pm 11 11 mph 1021.3mb 49f
7:30pm 11 11 mph 1021.5mb 49f
7:24pm 11 13 mph 1021.4mb 49f
7:18pm 13 13 mph 1021.4mb 49f
7:12pm 14 14 mph 1021.3mb 48f
7:06pm 13 13 mph 1021.4mb 48f
7:00pm 13 14 mph 1021.4mb 48f
6:54pm 14 14 mph 1021.3mb 48f
6:48pm 13 14 mph 1021.2mb -
6:42pm 13 13 mph 1021.3mb 47f
6:36pm 11 13 mph 1021.7mb 47f
6:30pm 11 13 mph 1021.6mb 47f
6:24pm 13 14 mph 1021.6mb 47f
6:18pm 11 13 mph 1021.6mb 46f
6:12pm 13 13 mph 1021.4mb 46f
6:06pm 10 11 mph 1021.4mb 46f
6:00pm 10 10 mph 1021.2mb 46f
5:54pm 9 10 mph 1021.5mb 46f
5:48pm 9 10 mph 1021.4mb -
5:42pm 10 11 mph 1020.9mb 46f
5:36pm 8 9 mph 1021mb 47f
5:30pm 7 8 mph 1021.3mb 47f
5:24pm 7 7 mph 1021.6mb 47f
5:18pm 6 6 mph 1021.5mb 47f
5:12pm 6 7 mph 1021.3mb 47f
5:06pm 6 7 mph 1021.1mb 47f
5:00pm 7 8 mph 1021mb 47f
4:54pm 7 7 mph 1021mb 47f
4:48pm 6 7 mph - -
4:42pm 5 8 mph 1020.9mb 48f
4:36pm 6 7 mph 1020.8mb 48f
4:30pm 6 7 mph 1020.7mb 48f
4:24pm 2 5 mph 1020.8mb 48f
4:18pm 3 8 mph 1020.9mb 48f
4:12pm 6 9 mph 1020.9mb 46f
4:06pm 7 8 mph 1020.6mb 49f
4:00pm 2 3 mph 1020.8mb 48f
3:54pm  -  1 mph 1020.8mb 47f
3:48pm  -  2 mph 1020.9mb 47f
3:42pm 2 3 mph 1020.9mb 46f
3:36pm  -  2 mph 1020.9mb 46f
3:30pm 1 3 mph 1020.9mb 46f
3:24pm 3 5 mph 1021.1mb 46f
3:18pm 5 5 mph 1020.9mb 46f
3:12pm 3 7 mph 1020.8mb 46f
3:06pm 7 7 mph 1020.7mb 45f
3:00pm 6 6 mph 1020.9mb 45f
2:54pm 3 5 mph 1020.9mb 45f
2:48pm 3 5 mph 1021.1mb 45f
2:42pm  -  0 mph 1021mb 45f
2:36pm  -  1 mph 1020.9mb 45f
2:30pm  -  2 mph 1021mb 45f
2:24pm 1 3 mph 1021mb 45f
2:18pm  -  0 mph 1020.8mb 46f
2:12pm  -  0 mph 1020.6mb 46f
2:06pm  -  1 mph 1020.6mb 45f
2:00pm 1 5 mph 1020.8mb 45f
1:42pm 5 6 mph 1020.3mb 46f
1:36pm 5 7 mph 1020.4mb 46f
1:30pm 6 8 mph 1020.6mb 46f
1:24pm 6 8 mph 1020.7mb 46f
1:18pm 2 3 mph 1020.7mb 47f
1:12pm 2 6 mph 1020.6mb 47f
1:06pm 3 5 mph 1020.5mb 48f
1:00pm 5 5 mph 1020.7mb 48f
12:54pm 3 5 mph 1020.9mb 48f
12:48pm 5 6 mph 1021.2mb 48f
12:42pm 6 7 mph 1021.2mb 47f
12:36pm 7 9 mph 1021.2mb 47f
12:30pm 9 13 mph 1021.3mb 47f
12:24pm 13 14 mph 1021.3mb 47f
12:18pm 14 14 mph 1021.4mb 47f
12:12pm 13 13 mph 1021.5mb 47f
12:06pm 11 11 mph 1021.6mb 46f
12:00pm 8 9 mph 1021.5mb 47f
11:54am 9 9 mph 1021.6mb 46f
11:48am 8 8 mph 1021.6mb 46f
11:42am 7 8 mph 1021.8mb 46f
11:36am 7 7 mph 1021.9mb 46f
11:30am 7 7 mph 1022mb 46f
11:24am 6 6 mph 1022.1mb 46f
11:18am 5 6 mph 1022.1mb 46f
11:12am 5 5 mph 1022.3mb 46f
11:06am 5 6 mph 1022.3mb 45f
11:00am 5 5 mph 1022.3mb 45f
10:54am 5 6 mph 1022.2mb 45f
10:48am 6 6 mph 1021.9mb 45f
10:42am 6 7 mph 1021.9mb 46f
10:36am 3 5 mph 1022.1mb 46f
10:30am 2 2 mph 1022.4mb 47f
10:24am  -  3 mph 1022.6mb 46f
10:18am 3 3 mph 1022.7mb 46f
10:12am 2 2 mph 1022.9mb 46f
10:06am  -  2 mph 1022.8mb 46f
10:00am 2 3 mph 1022.8mb 45f
9:54am 2 3 mph 1022.8mb 46f
9:48am 2 2 mph 1022.6mb 46f
9:42am 2 5 mph 1022.6mb 45f
9:36am 2 3 mph 1022.7mb 45f
9:30am 2 2 mph 1022.7mb 46f
9:24am 2 3 mph 1022.8mb 45f
9:18am 2 3 mph 1022.9mb 45f
9:12am 3 5 mph 1023mb 45f
9:06am 5 6 mph 1023.1mb 45f
9:00am 6 7 mph 1023mb 45f
8:54am 6 7 mph 1023mb 45f
8:48am 7 8 mph 1022.9mb 45f
8:42am 8 10 mph 1022.9mb 45f
8:36am 9 10 mph 1022.9mb 45f
8:30am 10 11 mph 1022.8mb 45f
8:24am 10 10 mph 1022.6mb 46f
8:18am 9 9 mph 1022.5mb 47f
8:12am 9 10 mph 1022.6mb 47f
8:06am 9 10 mph 1022.8mb 46f
8:00am 8 9 mph 1022.7mb 46f
7:54am 9 9 mph 1022.5mb 46f
7:48am 9 9 mph 1022.6mb 45f
7:42am 7 7 mph 1022.6mb 45f
7:36am 7 7 mph 1022.6mb 45f
7:30am 6 7 mph 1022.7mb 45f
7:24am 8 8 mph 1022.6mb 45f
7:18am 6 6 mph 1022.5mb 45f
7:12am 5 5 mph 1023.1mb 46f
7:06am 3 3 mph 1023.1mb 46f
7:00am 2 2 mph 1023.1mb 47f
6:54am 2 3 mph 1023mb 46f
6:48am 5 5 mph 1022.9mb 47f
6:42am 2 5 mph 1023mb 47f
6:36am 3 5 mph 1022.8mb 47f
6:30am 5 6 mph 1022.8mb 47f
6:24am 6 7 mph 1022.9mb 47f
6:18am 6 7 mph 1022.9mb 47f
6:12am 5 6 mph 1022.9mb 47f
6:06am 5 8 mph 1022.9mb 47f
6:00am 6 7 mph 1022.8mb 47f
5:54am 6 9 mph 1022.7mb 47f
5:48am 9 10 mph 1022.1mb 48f
5:42am 8 8 mph 1022.1mb 48f
5:36am 8 9 mph 1022.2mb 48f
5:30am 8 9 mph 1021.9mb 48f
5:24am 8 8 mph 1022.1mb 48f
5:18am 7 8 mph 1022.5mb 48f
5:12am 8 8 mph 1022.2mb 48f
5:06am 7 7 mph 1022.4mb 48f
5:00am 7 8 mph 1022.5mb -
4:54am 8 8 mph 1022.6mb 48f
4:48am 7 8 mph 1022.3mb 48f
4:42am 7 8 mph 1022.4mb 48f
4:36am 8 8 mph 1022.2mb 48f
4:30am 8 8 mph - -
4:24am 6 8 mph 1022.4mb 47f
4:18am 7 8 mph 1022.4mb 47f
4:12am 8 8 mph 1022.4mb 47f
4:06am 8 9 mph 1022.5mb 48f
4:00am 9 10 mph 1022.4mb 48f
3:54am 9 10 mph 1022.6mb 48f
3:48am 10 11 mph 1022.6mb 48f
3:42am 10 11 mph 1022.7mb 47f
3:36am 10 10 mph 1022.9mb 47f
3:30am 10 10 mph 1022.9mb 47f
3:24am 10 11 mph 1022.9mb 47f
3:18am 10 10 mph 1023.1mb 47f
3:12am 10 10 mph 1023.2mb 47f
3:06am 10 11 mph 1023.3mb 47f
3:00am 11 11 mph 1023.3mb 47f
2:54am 10 10 mph 1023.3mb 47f
2:48am 10 11 mph 1023.3mb 47f
2:42am 10 11 mph 1023.4mb 47f
2:36am 10 11 mph 1023.7mb 47f
2:30am 10 13 mph 1023.6mb 47f
2:24am 11 13 mph 1023.6mb 47f
2:18am 11 13 mph 1023.6mb 47f
2:12am 10 11 mph 1023.9mb 46f
2:06am 10 13 mph 1023.8mb 46f
2:00am 11 14 mph 1024mb 46f
1:54am 13 14 mph 1024.2mb 47f
1:48am 11 14 mph 1024.2mb 46f
1:42am 11 14 mph 1024.2mb -
1:36am 14 14 mph 1024.2mb -
1:30am 14 15 mph 1024.3mb 47f
1:24am 14 15 mph 1024.4mb 47f
1:18am 14 15 mph 1024.4mb 47f
1:12am 13 14 mph 1024.4mb 47f
1:06am 13 13 mph 1024.4mb 47f
1:00am 13 13 mph 1024.4mb 47f
12:54am 13 14 mph 1024.4mb 47f
12:48am 11 13 mph 1024.5mb 46f
12:42am 9 10 mph 1024.5mb 46f
12:36am 7 8 mph 1024.5mb 45f
12:30am 8 9 mph 1024.5mb 45f
12:24am 8 9 mph 1024.5mb 44f
12:18am 7 8 mph 1024.6mb 44f
12:12am 8 8 mph 1024.6mb 44f
12:06am 8 8 mph 1024.8mb 45f
12:00am 8 9 mph 1024.9mb 44f
Fri 02/23 11:54pm 8 9 mph 1025mb 44f
11:48pm 8 8 mph 1024.9mb 44f
11:42pm 8 8 mph 1024.9mb 44f
11:36pm 8 11 mph 1025mb 44f
11:30pm 8 8 mph 1025.1mb 44f
11:24pm 8 8 mph 1025.1mb 44f
11:18pm 8 8 mph 1025mb 44f
11:12pm 8 8 mph 1025.1mb 44f
11:06pm 7 8 mph 1025.2mb 43f
11:00pm 8 8 mph 1025.3mb 44f
10:54pm 8 9 mph 1025.4mb 44f
10:48pm 9 9 mph 1025.4mb 44f
10:42pm 8 8 mph 1025.5mb 44f
10:36pm 8 10 mph 1025.5mb 43f
10:30pm 9 9 mph 1025.4mb 43f
10:24pm 9 10 mph 1025.4mb 43f
10:18pm 10 10 mph 1025.4mb 43f
10:12pm 9 9 mph 1025.5mb 43f
10:06pm 9 9 mph 1025.6mb 43f
10:00pm 9 9 mph 1025.7mb 43f
9:54pm 8 10 mph 1025.8mb 43f
9:48pm 9 10 mph 1025.7mb 43f
9:42pm 9 10 mph 1026mb 43f
9:36pm 9 9 mph 1026.1mb 43f
9:30pm 8 8 mph 1026.3mb 43f
9:24pm 8 9 mph 1026.3mb 43f
9:18pm 8 8 mph 1026.4mb 43f
9:12pm 7 8 mph 1026.5mb 43f
9:06pm 7 8 mph 1026.6mb 43f
9:00pm 7 7 mph 1026.7mb 43f
8:54pm 7 7 mph 1026.8mb 43f
8:48pm 7 7 mph 1026.8mb 43f
8:42pm 7 8 mph 1026.8mb 43f
8:36pm 8 8 mph 1026.7mb 43f
8:30pm 8 8 mph 1026.7mb 43f
8:24pm 8 9 mph 1026.8mb 42f
8:18pm 8 9 mph 1026.8mb 42f
8:12pm 8 8 mph 1026.7mb 42f
8:06pm 7 8 mph 1026.7mb 42f
8:00pm 8 9 mph 1026.8mb 43f
7:54pm 8 9 mph 1026.7mb 42f
7:48pm 7 7 mph - -
7:42pm 6 7 mph 1026.7mb 43f
7:36pm 7 7 mph 1026.9mb 43f
7:30pm 6 7 mph 1027mb 43f
7:24pm 5 6 mph 1027.2mb 43f
7:18pm 5 6 mph 1027.2mb 43f
7:12pm 5 6 mph 1027.4mb 43f
7:06pm 6 7 mph 1027.6mb 43f
7:00pm 6 7 mph 1027.6mb 43f
6:54pm 8 8 mph 1027.9mb 43f
6:48pm 7 8 mph 1028mb -
6:42pm 6 6 mph 1027.8mb 43f
6:36pm 6 6 mph 1027.8mb 43f
6:30pm 5 5 mph 1027.6mb 43f
6:24pm 3 5 mph 1027.6mb 43f
6:18pm 5 5 mph 1027.7mb 43f
6:12pm 5 5 mph 1027.7mb 43f
6:06pm 3 5 mph 1027.7mb 43f
6:00pm 5 6 mph 1027.7mb 43f
5:54pm 6 7 mph 1027.8mb 43f
5:48pm 7 7 mph 1028mb -
5:42pm 7 8 mph 1028mb 43f
5:36pm 9 11 mph 1028.2mb 43f
5:30pm 10 13 mph 1028.4mb 42f
5:24pm 11 13 mph 1028.5mb 42f
5:18pm 11 11 mph 1028.5mb 42f
5:12pm 8 9 mph 1028.5mb 43f
5:06pm 2 3 mph 1028.1mb 43f
5:00pm 3 6 mph 1027.9mb 43f
4:54pm 5 6 mph 1027.8mb 43f
4:48pm 6 6 mph - -
4:42pm 5 5 mph 1028mb 43f
4:36pm 5 6 mph 1028.1mb 43f
4:30pm 5 6 mph 1028.2mb 43f
4:24pm 5 7 mph 1028.5mb 43f
4:18pm 7 8 mph 1028.3mb 43f
4:12pm 7 8 mph 1028.4mb 43f
4:06pm 6 6 mph 1028.6mb 43f
4:00pm 3 5 mph 1028.8mb 43f
3:54pm 5 5 mph 1029mb 44f
3:48pm 3 7 mph 1029.2mb 44f
3:42pm 7 7 mph 1029mb 44f
3:36pm 7 7 mph 1029.1mb 44f
3:30pm 5 6 mph 1029.4mb 43f
3:24pm 5 6 mph 1029.5mb 43f
3:18pm 5 5 mph 1029.7mb 43f
3:12pm 5 6 mph 1029.9mb 43f
3:06pm 5 5 mph 1029.9mb 43f
3:00pm 5 5 mph 1030mb 43f
2:54pm 5 6 mph 1030.2mb 43f
2:48pm 6 6 mph 1030.3mb 43f
2:42pm 5 6 mph 1030.4mb 43f
2:36pm 6 7 mph 1030.5mb 43f
2:30pm 7 7 mph 1030.5mb 43f
2:24pm 7 8 mph 1030.6mb 43f
2:18pm 8 8 mph 1030.6mb 43f
2:12pm 7 9 mph 1030.8mb 43f
2:06pm 8 9 mph 1030.8mb 43f
2:00pm 8 8 mph 1030.9mb 43f
1:54pm 8 8 mph 1031.1mb 43f
1:48pm 8 8 mph 1031.2mb 43f
1:42pm 9 10 mph 1031.3mb 43f
1:36pm 10 11 mph 1031.2mb 43f
1:30pm 10 11 mph 1031.4mb 43f
1:24pm 10 10 mph 1031.5mb 43f
1:18pm 10 11 mph 1031.7mb 43f
1:12pm 9 10 mph 1031.8mb 43f
1:06pm 10 10 mph 1031.8mb 43f
1:00pm 8 9 mph 1032mb 43f
12:54pm 9 10 mph 1032.1mb 43f
12:48pm 9 10 mph 1032.1mb 43f
12:42pm 9 10 mph 1032.2mb 43f
12:36pm 9 10 mph 1032.4mb 43f
12:30pm 9 11 mph 1032.5mb 43f
12:24pm 11 13 mph 1032.6mb 43f
12:18pm 11 14 mph 1032.7mb 43f
12:12pm 13 14 mph 1032.8mb 43f
12:06pm 11 14 mph 1032.9mb 42f
12:00pm 13 15 mph 1032.9mb 42f
11:54am 13 14 mph 1033mb 42f
11:48am 13 15 mph 1033.2mb 42f
11:42am 14 16 mph 1033.4mb 42f
11:36am 14 16 mph 1033.4mb 42f
11:30am 16 18 mph 1033.5mb 42f
11:24am 16 17 mph 1033.6mb 42f
11:18am 16 17 mph 1033.7mb 42f
11:12am 16 17 mph 1033.9mb 42f
11:06am 15 17 mph 1034.1mb 42f
11:00am 15 16 mph 1034.3mb 42f
10:54am 15 17 mph 1034.3mb 42f
10:48am 15 17 mph 1034.4mb 42f
10:42am 15 18 mph 1034.4mb 42f
10:36am 17 18 mph 1034.5mb 42f
10:30am 17 18 mph 1034.6mb 42f
10:24am 15 16 mph 1034.8mb 42f
10:18am 14 16 mph 1035.1mb 42f
10:12am 16 16 mph 1034.9mb 42f
10:06am 15 16 mph 1035.2mb 42f
10:00am 14 16 mph 1035.3mb 42f
9:54am 14 16 mph 1035.4mb 42f
9:48am 14 14 mph 1035.9mb 42f
9:42am 15 16 mph 1035.8mb 42f
9:36am 14 16 mph 1035.6mb 42f
9:30am 14 16 mph 1035.5mb 42f
9:24am 15 17 mph 1035.4mb 42f
9:18am 16 18 mph 1035.3mb 42f
9:12am 16 17 mph 1035.4mb 42f
9:06am 17 18 mph 1035.4mb 42f
9:00am 14 17 mph 1035.7mb 42f
8:54am 14 17 mph 1035.7mb 42f
8:48am 15 18 mph 1035.8mb 41f
8:42am 16 18 mph 1035.6mb 41f
8:36am 15 18 mph 1035.5mb 41f
8:30am 16 18 mph 1035.6mb 41f
8:24am 17 20 mph 1035.6mb 41f
8:18am 17 21 mph 1035.3mb -
8:12am 21 22 mph 1035.2mb 41f
8:06am 20 22 mph 1035.3mb 41f
8:00am 17 21 mph 1035.5mb 41f
7:54am 17 21 mph 1035.7mb 42f
7:48am 20 23 mph 1035.8mb 42f
7:42am 20 23 mph 1035.5mb 41f
7:36am 21 23 mph 1035.5mb 42f
7:30am 21 26 mph 1035.3mb 42f
7:24am 21 23 mph 1035.3mb 42f
7:18am 21 24 mph 1035.5mb 42f
7:12am 22 25 mph 1035.2mb 42f
7:06am 23 25 mph 1035.2mb 42f
7:00am 20 25 mph 1035.3mb 42f
6:54am 18 22 mph 1035.6mb 42f
6:48am 21 25 mph 1035.5mb 42f
6:42am 20 24 mph 1035.5mb 41f
6:36am 18 22 mph 1035.5mb 41f
6:30am 22 25 mph 1035.4mb 41f
6:24am 23 25 mph 1035.3mb 41f
6:18am 21 23 mph 1035.2mb 41f
6:12am 20 23 mph 1035.3mb 41f
6:06am 21 25 mph 1035.4mb 41f
6:00am 22 24 mph 1035.3mb 41f
5:54am 20 24 mph 1035.3mb 41f
5:48am 22 24 mph 1035.3mb 41f
5:42am 21 23 mph 1035.4mb 41f
5:36am 22 24 mph 1035.2mb 41f
5:30am 22 26 mph 1035.1mb 41f
5:24am 22 25 mph 1035.1mb 41f
5:18am 22 24 mph 1035.4mb 41f
5:12am 22 25 mph 1035.8mb 41f
5:06am 21 25 mph 1035.7mb 41f
5:00am 23 26 mph 1035.3mb 41f
4:54am 23 25 mph 1035.6mb 41f
4:48am 23 25 mph 1035.9mb 41f
4:42am 22 26 mph 1035.9mb 41f
4:36am 22 24 mph 1035.9mb 41f
4:30am 22 25 mph 1036mb 41f
4:24am 21 23 mph 1036mb 41f
4:18am 22 26 mph 1036mb 41f
4:12am 23 25 mph 1035.9mb 41f
4:06am 24 28 mph 1035.8mb 41f
4:00am 22 24 mph 1035.6mb -
3:54am 22 25 mph 1035.3mb 41f
3:48am 24 30 mph 1035.4mb 41f
3:42am 24 26 mph 1035mb 41f
3:36am 21 24 mph 1035.3mb 41f
3:30am 21 25 mph 1035.6mb 41f
3:24am 21 23 mph 1035.5mb 41f
3:18am 21 24 mph 1035.6mb 41f
3:12am 22 24 mph 1035.6mb 41f
3:06am 21 24 mph 1035.8mb 41f
3:00am 22 24 mph 1036mb 41f
2:54am 23 25 mph 1036.1mb 41f
2:48am 23 25 mph 1035.6mb 41f
2:42am 20 25 mph 1035.5mb 41f
2:36am 23 24 mph 1035.5mb 41f
2:30am 22 25 mph 1035.9mb 41f
2:24am 23 25 mph 1036mb 41f
2:18am 23 28 mph 1036.1mb 41f
2:12am 22 24 mph 1036.2mb 41f
2:06am 22 23 mph 1036.2mb 41f
2:00am 20 22 mph 1036mb 41f
1:54am 21 24 mph 1036mb 41f
1:48am 22 24 mph 1035.9mb 41f
1:42am 22 25 mph 1035.9mb 41f
1:36am 23 25 mph 1035.6mb 41f
1:30am 22 24 mph 1035.7mb 41f
1:24am 21 23 mph 1036mb 42f
1:18am 22 25 mph 1036.2mb 42f
1:12am 21 23 mph 1036.3mb 42f
1:06am 22 25 mph 1036.4mb 42f
1:00am 23 25 mph 1036.2mb 42f
12:54am 22 24 mph 1036.6mb 42f
12:48am 21 23 mph 1036.5mb 42f
12:42am 20 23 mph 1036.4mb 42f
12:36am 22 23 mph 1036.5mb 42f
12:30am 21 28 mph 1036.7mb 42f
12:24am 23 25 mph 1036.4mb 42f
12:18am 22 24 mph 1036.3mb 42f
12:12am 21 23 mph 1036.3mb 42f
12:06am 21 24 mph 1036.4mb 42f
12:00am 21 23 mph 1036.4mb 41f
Thu 02/22 11:54pm 18 23 mph 1036.7mb 41f
11:48pm 22 25 mph 1036.7mb 41f
11:42pm 21 23 mph 1036.6mb 41f
11:36pm 20 23 mph 1036.7mb 41f
11:30pm 20 22 mph 1036.8mb 41f
11:24pm 18 21 mph 1036.7mb 41f
11:18pm 20 21 mph 1036.6mb 41f
11:12pm 20 22 mph 1036.4mb 41f
11:06pm 18 23 mph 1036.1mb 41f
11:00pm 22 23 mph 1036.1mb 41f
10:54pm 20 22 mph 1036.2mb 41f
10:48pm 18 25 mph 1036.3mb 41f
10:42pm 23 25 mph 1036.3mb 41f
10:36pm 20 24 mph 1036.3mb 41f
10:30pm 22 25 mph 1036.3mb 41f
10:24pm 21 23 mph 1036.2mb 41f
10:18pm 20 23 mph 1036.1mb 41f
10:12pm 20 23 mph 1036.1mb 41f
10:06pm 21 24 mph 1036.1mb 41f
10:00pm 18 22 mph 1036.1mb 41f
9:54pm 20 22 mph 1035.9mb 41f
9:48pm 21 28 mph 1036mb 41f
9:42pm 22 24 mph 1036mb 41f
9:36pm 20 28 mph 1035.9mb 41f
9:30pm 25 29 mph 1035.5mb 41f
9:24pm 24 29 mph 1035.6mb 41f
9:18pm 26 30 mph 1035.3mb 41f
9:12pm 26 29 mph 1035.3mb 41f
9:06pm 25 29 mph 1035.4mb 41f
9:00pm 25 30 mph 1035.4mb 40f
8:54pm 26 36 mph 1035.2mb 41f
8:48pm 25 29 mph 1035.1mb 40f
8:42pm 28 34 mph 1035mb 40f
8:36pm 28 32 mph 1035.1mb 40f
8:30pm 30 37 mph 1035.1mb 40f
8:24pm 32 36 mph 1034.9mb 39f
8:18pm 30 33 mph 1035.1mb 39f
8:12pm 30 34 mph 1035.1mb 39f
8:06pm 28 36 mph 1035.1mb 39f
8:00pm 32 34 mph 1034.9mb 39f
7:54pm 30 33 mph 1035.2mb 39f
7:48pm 26 33 mph - -
7:42pm 32 36 mph 1035.5mb 39f
7:36pm 28 33 mph 1035.3mb 39f
7:30pm 24 34 mph 1035.3mb 40f
7:24pm 26 32 mph 1035.3mb 40f
7:18pm 29 32 mph 1035.3mb 40f
6:48pm 28 32 mph 1035.3mb 42f
6:42pm 30 36 mph - -
6:36pm 31 37 mph 1035.3mb 42f
6:30pm 31 34 mph 1035.2mb 42f
6:24pm 30 32 mph 1035.2mb 42f
6:12pm 25 30 mph 1034.9mb 42f
6:06pm 25 30 mph 1035mb 42f
6:00pm 25 30 mph 1035mb 42f
5:54pm 28 31 mph 1034.8mb 42f
5:48pm 28 32 mph - -
5:42pm 25 29 mph 1034.7mb 42f
5:36pm 24 26 mph 1034.7mb 42f
5:30pm 26 29 mph 1034.6mb 43f
5:24pm 26 29 mph 1034.4mb 43f
5:18pm 25 29 mph 1034.2mb 42f
5:12pm 25 28 mph 1034.2mb 43f
5:06pm 22 28 mph 1034.1mb 43f
5:00pm 24 26 mph 1033.8mb 43f
4:54pm 24 26 mph 1033.5mb 43f
4:48pm 25 28 mph - -
4:42pm 26 28 mph 1033.7mb 43f
4:36pm 23 29 mph 1033.6mb 43f
4:30pm 24 28 mph 1033.5mb 43f
4:24pm 24 25 mph 1033.1mb 43f
4:18pm 24 28 mph 1032.8mb 43f
4:12pm 24 28 mph 1032.4mb 43f
4:06pm 24 25 mph 1032.2mb 43f
4:00pm 23 25 mph 1032.2mb 44f
3:54pm 25 29 mph 1032mb 44f
3:48pm 24 29 mph 1031.6mb 44f
3:42pm 26 29 mph 1031.4mb 44f
3:36pm 26 29 mph 1031.3mb 44f
3:30pm 23 28 mph 1031.3mb 44f
3:24pm 24 28 mph 1031.2mb 44f
3:18pm 26 29 mph 1031.4mb 44f
3:12pm 24 28 mph 1031.6mb 44f
3:06pm 23 28 mph 1031.4mb 44f
3:00pm 26 29 mph 1031.4mb 44f
2:54pm 24 28 mph 1031.4mb 44f
2:48pm 23 24 mph 1031.4mb 44f
2:42pm 20 24 mph 1031.5mb 44f
2:36pm 22 26 mph 1031.4mb 44f
2:30pm 23 29 mph 1030.9mb 44f
2:24pm 26 29 mph 1030.6mb 44f
2:18pm 25 29 mph 1031mb 44f
2:12pm 22 26 mph 1031.1mb 44f
2:06pm 22 25 mph 1031.1mb 44f
2:00pm 21 26 mph 1031.4mb 45f
1:54pm 22 26 mph 1031.3mb 45f
1:48pm 23 25 mph 1031.5mb 45f
1:42pm 23 26 mph 1031.7mb 45f
1:36pm 23 26 mph 1031.7mb 46f
1:30pm 23 29 mph 1031.9mb 46f
1:24pm 25 29 mph 1031.9mb 46f
1:18pm 23 29 mph 1032.1mb 46f
1:12pm 23 28 mph 1032mb 46f
1:06pm 24 28 mph 1032mb 47f
1:00pm 26 31 mph 1031.8mb 47f
12:54pm 23 26 mph 1031.9mb 46f
12:48pm 23 25 mph 1032.2mb 47f
12:42pm 23 24 mph 1032.3mb 47f
12:36pm 22 26 mph 1032.3mb 47f
12:30pm 23 25 mph 1032.3mb 47f
12:24pm 22 24 mph 1032.5mb 47f
12:18pm 20 25 mph 1032.6mb 47f
12:12pm 22 23 mph 1032.6mb 47f
12:06pm 21 24 mph 1032.7mb 47f
12:00pm 22 24 mph 1032.6mb 47f
11:54am 22 24 mph 1032.7mb 47f
11:48am 24 26 mph 1032.6mb 47f
11:42am 23 28 mph 1032.8mb 47f
11:36am 24 28 mph 1032.8mb 47f
11:30am 23 26 mph 1033mb 47f
11:24am 25 28 mph 1033mb 47f
11:18am 24 30 mph 1033mb 47f
11:12am 26 29 mph 1033mb 47f
11:06am 26 30 mph 1033mb 47f
11:00am 25 29 mph 1033.2mb 47f
10:54am 26 29 mph 1033mb 48f
10:48am 25 29 mph 1033.1mb 48f
10:42am 25 31 mph 1033mb 48f
10:36am 25 30 mph 1033.1mb 48f
10:30am 25 31 mph 1033.4mb 48f
10:24am 26 31 mph 1033.4mb 48f
10:18am 29 32 mph 1033.1mb 49f
10:12am 29 31 mph 1033mb 49f
10:06am 26 32 mph 1033.1mb 49f
10:00am 26 30 mph 1032.8mb 49f
9:54am 26 30 mph 1033mb 49f
9:48am 26 30 mph 1033.1mb 50f
9:42am 23 28 mph 1033.3mb 49f
9:36am 23 29 mph 1033.4mb 49f
9:30am 24 28 mph 1033.2mb 49f
9:24am 25 30 mph 1033.1mb 50f
9:18am 25 29 mph 1033mb 50f
9:12am 23 26 mph 1033.1mb 50f
9:06am 23 26 mph 1033mb 49f
9:00am 24 26 mph 1032.7mb 49f
8:54am 22 26 mph 1032.7mb 49f
8:48am 23 25 mph 1032.6mb 49f
8:42am 22 24 mph 1032.6mb 49f
8:36am 22 25 mph 1032.5mb 50f
8:30am 20 23 mph 1032.5mb 49f
8:24am 22 25 mph 1032.4mb 50f
8:18am 22 25 mph 1032.4mb 50f
8:12am 18 23 mph 1032.4mb 50f
8:06am 21 23 mph 1032.3mb 51f
8:00am 22 23 mph 1032.4mb 51f
7:54am 18 22 mph 1032.4mb 51f
7:48am 17 23 mph 1032.3mb 51f
7:42am 20 23 mph 1032.1mb 52f
7:36am 18 21 mph 1032mb 52f
7:30am 21 23 mph 1031.7mb 53f
7:24am 20 21 mph 1031.8mb 53f
7:18am 18 21 mph 1031.8mb 53f
7:12am 18 21 mph 1031.7mb 53f
7:06am 15 16 mph 1031.9mb 53f
7:00am 6 10 mph 1031.9mb 50f
6:54am 14 18 mph 1031.5mb 53f
6:48am 17 20 mph 1031.4mb 54f
6:42am 18 20 mph 1031.3mb 54f
6:36am 20 20 mph 1031.2mb 54f
6:30am 16 18 mph 1031.3mb 53f
6:24am 16 17 mph 1031.3mb 54f
6:18am 16 16 mph 1031.3mb -
6:12am 16 17 mph 1031.3mb 54f
6:06am 14 15 mph 1031.4mb 53f
6:00am 15 16 mph 1031.4mb 55f
5:54am 15 16 mph 1031.4mb 55f
5:48am 14 17 mph 1031.4mb 53f
5:42am 15 17 mph 1031.4mb 53f
5:36am 15 18 mph 1031.3mb 53f
5:30am 17 20 mph 1031.3mb 54f
5:24am 17 18 mph 1031.3mb 55f
5:18am 14 16 mph 1031.3mb 54f
5:12am 15 16 mph 1031.2mb 55f
5:06am 13 14 mph 1031.3mb 55f
5:00am 11 14 mph 1031.4mb 55f
4:54am 14 14 mph 1031.1mb 56f
4:48am 11 13 mph 1031.1mb -
4:42am 7 9 mph 1031.1mb 53f
4:36am 7 8 mph 1031.3mb 54f
4:30am 7 11 mph 1031.3mb 53f
4:24am 11 13 mph 1030.9mb 55f
4:18am 11 11 mph 1030.8mb 55f
4:12am 10 11 mph 1030.8mb 55f
4:06am 10 11 mph 1030.8mb 55f
4:00am 11 15 mph 1030.5mb -
3:54am 14 17 mph 1030.5mb 55f
3:48am 14 16 mph 1030.5mb 55f
3:42am 16 17 mph 1030.4mb 54f
3:36am 15 16 mph 1030.5mb 53f
3:30am 13 14 mph - -
3:24am 13 14 mph 1030.5mb 52f
3:18am 14 14 mph 1030.2mb 53f
3:12am 13 16 mph 1030.2mb 53f
3:06am 17 20 mph 1030.2mb 53f
3:00am 20 21 mph 1030.1mb 56f
2:54am 21 21 mph 1030mb 56f
2:48am 20 21 mph 1030.1mb 56f
2:42am 21 22 mph 1030.2mb 57f
2:36am 22 22 mph 1030.1mb 58f
2:30am 17 20 mph 1030.1mb 56f
2:24am 18 21 mph 1029.9mb 57f
2:18am 16 23 mph 1029.8mb 55f
2:12am 22 23 mph 1029.7mb 56f
2:06am 18 21 mph 1029.8mb 56f
2:00am 17 20 mph 1029.8mb 57f
1:54am 11 11 mph 1029.8mb 59f
1:48am 10 11 mph - -
1:42am 8 11 mph 1029.7mb 64f
1:36am 8 9 mph 1029.5mb 66f
1:30am 6 6 mph 1029.6mb 66f
1:24am 5 5 mph 1029.7mb 64f
1:18am 5 6 mph 1029.6mb 64f
1:12am 6 6 mph 1029.5mb 64f
1:06am 5 7 mph 1029.4mb 64f
1:00am 6 7 mph 1029.4mb 65f
12:54am 7 8 mph 1029.2mb 65f
12:48am 6 9 mph 1029.2mb 64f
12:42am 6 8 mph 1029.1mb -
12:36am 7 11 mph 1029.1mb -
12:30am 10 11 mph 1029.1mb 61f
12:24am 11 16 mph 1029mb 60f
12:18am 16 16 mph 1028.7mb 64f
12:12am 16 17 mph 1028.7mb 65f
12:06am 17 17 mph 1028.6mb 65f
12:00am 16 16 mph 1028.6mb 63f
Wed 02/21 11:54pm 14 16 mph 1028.6mb 62f
11:48pm 14 16 mph 1028.5mb 63f
11:42pm 15 16 mph 1028.4mb 64f
11:36pm 14 16 mph 1028.3mb 64f
11:30pm 15 17 mph 1028.3mb 64f
11:24pm 16 17 mph 1028.2mb 65f
11:18pm 16 18 mph 1028.1mb 66f
11:12pm 17 18 mph 1028.1mb 66f
11:06pm 18 20 mph 1028mb 66f
11:00pm 17 18 mph 1028mb 66f
10:54pm 16 17 mph 1028.1mb 66f
10:48pm 16 17 mph 1028.1mb 65f
10:42pm 15 16 mph 1028.2mb 65f
10:36pm 15 15 mph 1028.2mb 65f
10:30pm 15 16 mph 1028.2mb 65f
10:24pm 14 15 mph 1028.2mb 64f
10:18pm 14 15 mph 1028.2mb 65f
10:12pm 14 14 mph 1028.1mb 64f
10:06pm 14 15 mph 1028.1mb 64f
10:00pm 14 15 mph 1028.1mb 65f
9:54pm 14 15 mph 1028mb 65f
9:48pm 15 16 mph 1028mb 66f
9:42pm 16 17 mph 1027.9mb 67f
9:36pm 16 17 mph 1027.9mb 67f
9:30pm 16 17 mph 1027.8mb 67f
9:24pm 16 17 mph 1027.7mb 67f
9:18pm 17 18 mph 1027.6mb 67f
9:12pm 17 18 mph 1027.5mb 67f
9:06pm 18 20 mph 1027.5mb 68f
9:00pm 20 20 mph 1027.4mb 68f
8:54pm 18 20 mph 1027.4mb 68f
8:48pm 20 21 mph 1027.4mb 68f
8:42pm 20 22 mph 1027.4mb 69f
8:36pm 21 22 mph 1027.4mb 69f
8:30pm 21 22 mph 1027.4mb 68f
8:24pm 21 21 mph 1027.4mb 68f
8:18pm 21 22 mph 1027.4mb 68f
8:12pm 21 22 mph 1027.3mb 69f
8:06pm 21 22 mph 1027.3mb 69f
8:00pm 21 22 mph 1027.1mb 69f
7:54pm 20 20 mph 1027.1mb 69f
7:48pm 18 20 mph 1027.2mb 69f
7:42pm 18 20 mph 1027.2mb 69f
7:36pm 17 18 mph 1027.2mb 68f
7:30pm 17 18 mph 1027.2mb 67f
7:24pm 17 18 mph 1027.1mb 67f
7:18pm 17 18 mph - -
7:12pm 17 18 mph 1027.1mb 64f
7:06pm 17 18 mph 1027mb 62f
7:00pm 16 17 mph 1026.9mb 64f
6:54pm 15 16 mph 1027mb 65f
6:48pm 16 16 mph - -
6:42pm 15 15 mph 1026.8mb 64f
6:36pm 13 15 mph 1026.8mb 65f
6:30pm 14 17 mph 1026.7mb 62f
6:24pm 17 21 mph 1026.6mb 66f
6:18pm 18 20 mph 1026.6mb 72f
6:12pm 18 20 mph 1026.6mb 71f
6:06pm 20 22 mph 1026.5mb 71f
6:00pm 21 22 mph 1026.4mb 71f
5:54pm 21 22 mph 1026.3mb 72f
5:48pm 20 21 mph 1026.3mb -
5:42pm 22 24 mph 1026.3mb 69f
5:36pm 21 22 mph 1026.3mb 68f
5:30pm 16 21 mph 1026.4mb 66f
5:24pm 22 25 mph 1026.3mb 70f
5:18pm 23 26 mph 1026.1mb 68f
5:12pm 21 23 mph 1026mb 67f
5:06pm 20 21 mph 1026.1mb 66f
5:00pm 20 21 mph 1026.1mb 67f
4:54pm 20 22 mph 1026.1mb 68f
4:48pm 20 22 mph - -
4:42pm 18 22 mph 1026mb 69f
4:36pm 21 23 mph 1026mb 69f
4:30pm 17 21 mph 1026mb 66f
4:24pm 17 21 mph 1026mb 65f
4:18pm 20 22 mph 1026mb 66f
4:12pm 20 22 mph 1025.9mb 66f
4:06pm 22 25 mph 1025.9mb 65f
4:00pm 28 30 mph 1025.9mb 66f
3:54pm 29 30 mph 1025.7mb 69f
3:48pm 28 30 mph 1025.8mb 68f
3:42pm 28 29 mph 1025.8mb 69f
3:36pm 26 29 mph 1025.9mb 69f
3:30pm 28 30 mph 1025.9mb 71f
3:24pm 29 30 mph 1025.9mb 70f